createdAt,value
2018-04-23T00:00:44.636Z,17.26
2018-04-23T00:01:44.648Z,17.33
2018-04-23T00:03:37.551Z,17.08
2018-04-23T00:04:37.576Z,17.04
2018-04-23T00:06:30.508Z,17.03
2018-04-23T00:07:30.517Z,17.07
2018-04-23T00:09:23.421Z,17.07
2018-04-23T00:10:23.445Z,17.03
2018-04-23T00:12:16.373Z,17.00
2018-04-23T00:13:16.377Z,17.04
2018-04-23T00:15:09.305Z,16.97
2018-04-23T00:16:09.313Z,17.04
2018-04-23T00:18:02.221Z,17.04
2018-04-23T00:19:02.240Z,16.93
2018-04-23T00:20:55.172Z,17.07
2018-04-23T00:21:55.176Z,16.96
2018-04-23T00:23:48.087Z,17.07
2018-04-23T00:24:48.112Z,16.96
2018-04-23T00:26:41.040Z,17.03
2018-04-23T00:27:41.041Z,17.00
2018-04-23T00:29:33.949Z,17.11
2018-04-23T00:30:33.974Z,17.06
2018-04-23T00:32:26.902Z,17.16
2018-04-23T00:33:26.905Z,17.19
2018-04-23T00:35:19.837Z,17.22
2018-04-23T00:36:19.842Z,17.21
2018-04-23T00:38:12.749Z,17.16
2018-04-23T00:39:12.773Z,17.16
2018-04-23T00:41:05.704Z,17.26
2018-04-23T00:42:05.709Z,17.28
2018-04-23T00:43:58.617Z,17.43
2018-04-23T00:44:58.643Z,17.43
2018-04-23T00:46:51.575Z,17.49
2018-04-23T00:47:51.578Z,17.51
2018-04-23T00:49:44.490Z,17.49
2018-04-23T00:50:44.520Z,17.55
2018-04-23T00:52:37.441Z,17.58
2018-04-23T00:53:37.444Z,17.46
2018-04-23T00:55:30.372Z,17.46
2018-04-23T00:56:30.377Z,17.46
2018-04-23T00:58:23.287Z,17.49
2018-04-23T00:59:23.447Z,17.46
2018-04-23T01:01:16.238Z,17.49
2018-04-23T01:02:16.245Z,17.41
2018-04-23T01:04:09.653Z,17.64
2018-04-23T01:05:09.672Z,17.64
2018-04-23T01:07:02.599Z,17.68
2018-04-23T01:08:02.603Z,17.64
2018-04-23T01:09:55.515Z,17.48
2018-04-23T01:10:55.537Z,17.58
2018-04-23T01:12:48.469Z,17.64
2018-04-23T01:13:48.472Z,17.63
2018-04-23T01:15:41.402Z,17.77
2018-04-23T01:16:41.407Z,17.81
2018-04-23T01:18:34.318Z,17.71
2018-04-23T01:19:34.345Z,17.72
2018-04-23T01:21:27.269Z,17.79
2018-04-23T01:22:27.274Z,17.74
2018-04-23T01:24:20.184Z,17.75
2018-04-23T01:25:20.210Z,17.77
2018-04-23T01:27:13.136Z,17.75
2018-04-23T01:28:13.141Z,17.81
2018-04-23T01:30:06.054Z,17.77
2018-04-23T01:31:06.074Z,17.72
2018-04-23T01:32:59.006Z,17.77
2018-04-23T01:33:59.011Z,17.78
2018-04-23T01:35:51.941Z,17.79
2018-04-23T01:36:51.945Z,17.78
2018-04-23T01:38:44.855Z,17.89
2018-04-23T01:39:44.880Z,17.82
2018-04-23T01:41:37.812Z,17.86
2018-04-23T01:42:37.813Z,17.82
2018-04-23T01:44:30.723Z,17.87
2018-04-23T01:45:30.749Z,17.82
2018-04-23T01:47:23.678Z,17.86
2018-04-23T01:48:23.682Z,17.89
2018-04-23T01:50:16.589Z,17.92
2018-04-23T01:51:16.613Z,17.86
2018-04-23T01:53:09.541Z,17.89
2018-04-23T01:54:09.548Z,17.81
2018-04-23T01:56:02.472Z,17.82
2018-04-23T01:57:02.477Z,17.81
2018-04-23T01:58:55.388Z,17.86
2018-04-23T01:59:55.411Z,17.82
2018-04-23T02:01:48.342Z,17.86
2018-04-23T02:02:48.345Z,17.87
2018-04-23T02:04:41.258Z,17.97
2018-04-23T02:05:41.280Z,18.00
2018-04-23T02:07:34.207Z,17.96
2018-04-23T02:08:34.213Z,17.99
2018-04-23T02:10:27.122Z,17.95
2018-04-23T02:11:27.146Z,17.96
2018-04-23T02:13:20.074Z,17.86
2018-04-23T02:14:20.079Z,17.81
2018-04-23T02:16:13.010Z,17.77
2018-04-23T02:17:13.013Z,17.81
2018-04-23T02:19:05.948Z,17.82
2018-04-23T02:20:05.949Z,17.81
2018-04-23T02:21:58.876Z,17.78
2018-04-23T02:22:58.881Z,17.77
2018-04-23T02:24:51.789Z,17.77
2018-04-23T02:25:51.813Z,17.79
2018-04-23T02:27:44.741Z,17.75
2018-04-23T02:28:44.745Z,17.71
2018-04-23T02:30:37.655Z,17.75
2018-04-23T02:31:37.679Z,17.77
2018-04-23T02:33:30.607Z,17.81
2018-04-23T02:34:30.612Z,17.78
2018-04-23T02:36:23.540Z,17.81
2018-04-23T02:37:23.549Z,17.87
2018-04-23T02:39:16.469Z,17.78
2018-04-23T02:40:16.478Z,17.75
2018-04-23T02:42:09.410Z,17.78
2018-04-23T02:43:09.413Z,17.78
2018-04-23T02:45:02.321Z,17.79
2018-04-23T02:46:02.345Z,17.72
2018-04-23T02:47:55.273Z,17.79
2018-04-23T02:48:55.280Z,17.75
2018-04-23T02:50:48.188Z,17.72
2018-04-23T02:51:48.211Z,17.75
2018-04-23T02:53:41.139Z,17.77
2018-04-23T02:54:41.145Z,17.71
2018-04-23T02:56:34.235Z,17.71
2018-04-23T02:57:34.242Z,17.78
2018-04-23T02:59:27.149Z,17.63
2018-04-23T03:00:27.171Z,17.70
2018-04-23T03:02:20.102Z,17.66
2018-04-23T03:03:20.108Z,17.62
2018-04-23T03:05:13.034Z,17.56
2018-04-23T03:06:13.060Z,17.58
2018-04-23T03:08:05.998Z,17.55
2018-04-23T03:09:06.002Z,17.44
2018-04-23T03:10:58.911Z,17.41
2018-04-23T03:11:58.936Z,17.41
2018-04-23T03:13:52.060Z,17.44
2018-04-23T03:14:52.063Z,17.41
2018-04-23T03:16:45.218Z,17.40
2018-04-23T03:17:45.220Z,17.30
2018-04-23T03:19:38.132Z,17.30
2018-04-23T03:20:38.152Z,17.37
2018-04-23T03:22:31.081Z,17.28
2018-04-23T03:23:31.085Z,17.33
2018-04-23T03:25:24.003Z,17.19
2018-04-23T03:26:24.029Z,17.26
2018-04-23T03:28:16.955Z,17.25
2018-04-23T03:29:16.961Z,17.26
2018-04-23T03:31:09.868Z,17.23
2018-04-23T03:32:09.893Z,17.19
2018-04-23T03:34:02.822Z,17.30
2018-04-23T03:35:02.822Z,17.23
2018-04-23T03:36:55.753Z,17.28
2018-04-23T03:37:55.755Z,17.23
2018-04-23T03:39:48.665Z,17.25
2018-04-23T03:40:48.687Z,17.28
2018-04-23T03:42:41.617Z,17.26
2018-04-23T03:43:41.623Z,17.23
2018-04-23T03:45:34.527Z,17.26
2018-04-23T03:46:34.550Z,17.28
2018-04-23T03:48:27.480Z,17.25
2018-04-23T03:49:27.493Z,17.23
2018-04-23T03:51:20.399Z,17.19
2018-04-23T03:52:20.419Z,17.25
2018-04-23T03:54:13.345Z,17.15
2018-04-23T03:55:13.349Z,17.12
2018-04-23T03:57:06.275Z,17.12
2018-04-23T03:58:06.281Z,17.12
2018-04-23T03:59:59.190Z,17.22
2018-04-23T04:00:59.214Z,17.22
2018-04-23T04:02:52.145Z,17.28
2018-04-23T04:03:52.149Z,17.22
2018-04-23T04:05:45.062Z,17.22
2018-04-23T04:06:45.092Z,17.25
2018-04-23T04:08:38.012Z,17.25
2018-04-23T04:09:38.019Z,17.23
2018-04-23T04:11:30.927Z,17.19
2018-04-23T04:12:30.951Z,17.30
2018-04-23T04:14:23.876Z,17.25
2018-04-23T04:15:23.883Z,17.26
2018-04-23T04:17:16.811Z,17.23
2018-04-23T04:18:16.815Z,17.19
2018-04-23T04:20:09.727Z,17.23
2018-04-23T04:21:09.752Z,17.25
2018-04-23T04:23:02.680Z,17.22
2018-04-23T04:24:02.686Z,17.19
2018-04-23T04:25:55.597Z,17.25
2018-04-23T04:26:55.620Z,17.19
2018-04-23T04:28:48.553Z,17.26
2018-04-23T04:29:48.553Z,17.31
2018-04-23T04:31:41.462Z,17.31
2018-04-23T04:32:41.486Z,17.30
2018-04-23T04:34:34.413Z,17.31
2018-04-23T04:35:34.488Z,17.31
2018-04-23T04:37:27.348Z,17.25
2018-04-23T04:38:27.381Z,17.18
2018-04-23T04:40:20.265Z,17.28
2018-04-23T04:41:20.286Z,17.28
2018-04-23T04:43:13.221Z,17.26
2018-04-23T04:44:13.220Z,17.28
2018-04-23T04:46:06.126Z,17.34
2018-04-23T04:47:06.151Z,17.26
2018-04-23T04:48:59.096Z,17.23
2018-04-23T04:49:59.095Z,17.31
2018-04-23T04:51:52.002Z,17.22
2018-04-23T04:52:52.025Z,17.28
2018-04-23T04:54:44.955Z,17.33
2018-04-23T04:55:44.957Z,17.30
2018-04-23T04:57:37.890Z,17.22
2018-04-23T04:58:37.900Z,17.22
2018-04-23T05:00:30.801Z,17.19
2018-04-23T05:01:30.827Z,17.18
2018-04-23T05:03:23.801Z,17.22
2018-04-23T05:04:23.758Z,17.23
2018-04-23T05:06:16.669Z,17.26
2018-04-23T05:07:16.689Z,17.26
2018-04-23T05:09:09.623Z,17.31
2018-04-23T05:10:09.625Z,17.19
2018-04-23T05:12:02.531Z,17.31
2018-04-23T05:13:02.559Z,17.26
2018-04-23T05:14:55.483Z,17.26
2018-04-23T05:15:55.488Z,17.26
2018-04-23T05:17:48.419Z,17.19
2018-04-23T05:18:48.426Z,17.19
2018-04-23T05:20:41.337Z,17.12
2018-04-23T05:21:41.357Z,17.21
2018-04-23T05:23:34.289Z,17.15
2018-04-23T05:24:34.298Z,17.08
2018-04-23T05:26:27.199Z,17.19
2018-04-23T05:27:27.224Z,17.21
2018-04-23T05:29:20.153Z,17.26
2018-04-23T05:30:20.158Z,17.30
2018-04-23T05:32:13.067Z,17.28
2018-04-23T05:33:13.092Z,17.33
2018-04-23T05:35:06.025Z,17.40
2018-04-23T05:36:06.028Z,17.37
2018-04-23T05:37:58.969Z,17.49
2018-04-23T05:38:58.971Z,17.46
2018-04-23T05:40:51.915Z,17.44
2018-04-23T05:41:51.938Z,17.49
2018-04-23T05:43:44.870Z,17.59
2018-04-23T05:44:44.872Z,17.66
2018-04-23T05:46:37.790Z,17.70
2018-04-23T05:47:37.809Z,17.78
2018-04-23T05:49:30.741Z,17.79
2018-04-23T05:50:30.746Z,17.82
2018-04-23T05:52:23.659Z,17.81
2018-04-23T05:53:23.687Z,17.77
2018-04-23T05:55:16.613Z,17.81
2018-04-23T05:56:16.625Z,17.78
2018-04-23T05:58:09.576Z,17.75
2018-04-23T05:59:09.586Z,17.70
2018-04-23T06:01:02.499Z,17.72
2018-04-23T06:02:02.522Z,17.74
2018-04-23T06:03:55.450Z,17.70
2018-04-23T06:04:55.458Z,17.74
2018-04-23T06:06:48.371Z,17.97
2018-04-23T06:07:48.400Z,18.00
2018-04-23T06:09:41.329Z,18.29
2018-04-23T06:10:41.338Z,18.32
2018-04-23T06:12:34.247Z,18.52
2018-04-23T06:13:34.278Z,18.67
2018-04-23T06:15:27.204Z,18.67
2018-04-23T06:16:27.210Z,18.84
2018-04-23T06:18:20.146Z,18.78
2018-04-23T06:19:20.156Z,18.85
2018-04-23T06:21:13.071Z,18.66
2018-04-23T06:22:13.097Z,18.54
2018-04-23T06:24:06.031Z,18.55
2018-04-23T06:25:06.040Z,18.50
2018-04-23T06:26:58.955Z,18.51
2018-04-23T06:27:58.981Z,18.58
2018-04-23T06:29:51.918Z,18.80
2018-04-23T06:30:51.925Z,18.63
2018-04-23T06:32:44.839Z,18.62
2018-04-23T06:33:44.885Z,18.70
2018-04-23T06:35:37.800Z,18.67
2018-04-23T06:36:37.810Z,18.78
2018-04-23T06:38:30.740Z,18.78
2018-04-23T06:39:30.751Z,18.88
2018-04-23T06:41:23.662Z,19.21
2018-04-23T06:42:23.693Z,19.37
2018-04-23T06:44:16.622Z,19.55
2018-04-23T06:45:16.634Z,19.71
2018-04-23T06:47:09.548Z,19.95
2018-04-23T06:48:09.578Z,20.14
2018-04-23T06:50:02.512Z,20.28
2018-04-23T06:51:02.523Z,20.16
2018-04-23T06:52:55.440Z,20.14
2018-04-23T06:53:55.467Z,20.26
2018-04-23T06:55:48.414Z,20.29
2018-04-23T06:56:48.416Z,20.47
2018-04-23T06:58:41.354Z,20.16
2018-04-23T06:59:41.365Z,20.13
2018-04-23T07:01:34.289Z,20.16
2018-04-23T07:02:34.315Z,19.98
2018-04-23T07:04:27.253Z,19.78
2018-04-23T07:05:27.265Z,19.74
2018-04-23T07:07:20.177Z,19.48
2018-04-23T07:08:20.209Z,19.50
2018-04-23T07:10:13.144Z,19.50
2018-04-23T07:11:13.153Z,19.37
2018-04-23T07:13:06.068Z,19.32
2018-04-23T07:14:06.099Z,19.26
2018-04-23T07:15:59.033Z,19.31
2018-04-23T07:16:59.042Z,18.99
2018-04-23T07:18:51.973Z,18.98
2018-04-23T07:19:51.986Z,18.80
2018-04-23T07:21:44.898Z,18.69
2018-04-23T07:22:44.923Z,18.66
2018-04-23T07:24:37.861Z,18.73
2018-04-23T07:25:37.869Z,18.82
2018-04-23T07:27:30.784Z,18.76
2018-04-23T07:28:30.813Z,18.76
2018-04-23T07:30:23.756Z,18.82
2018-04-23T07:31:23.763Z,18.80
2018-04-23T07:33:16.688Z,18.88
2018-04-23T07:34:16.707Z,18.72
2018-04-23T07:36:09.646Z,18.54
2018-04-23T07:37:09.653Z,18.51
2018-04-23T07:39:02.588Z,18.39
2018-04-23T07:40:02.599Z,18.45
2018-04-23T07:41:55.510Z,18.66
2018-04-23T07:42:55.539Z,18.62
2018-04-23T07:44:48.471Z,18.78
2018-04-23T07:45:48.480Z,18.78
2018-04-23T07:47:41.396Z,18.87
2018-04-23T07:48:41.423Z,18.87
2018-04-23T07:50:34.357Z,18.85
2018-04-23T07:51:34.369Z,18.85
2018-04-23T07:53:27.282Z,19.10
2018-04-23T07:54:27.308Z,19.18
2018-04-23T07:56:20.243Z,19.32
2018-04-23T07:57:20.254Z,19.29
2018-04-23T07:59:13.222Z,19.33
2018-04-23T08:00:13.229Z,19.46
2018-04-23T08:02:06.147Z,19.33
2018-04-23T08:03:06.175Z,19.31
2018-04-23T08:04:59.108Z,19.33
2018-04-23T08:05:59.118Z,19.23
2018-04-23T08:07:52.041Z,19.33
2018-04-23T08:08:52.065Z,19.39
2018-04-23T08:10:45.010Z,19.54
2018-04-23T08:11:45.023Z,19.62
2018-04-23T08:13:37.938Z,19.58
2018-04-23T08:14:37.965Z,19.59
2018-04-23T08:16:30.904Z,19.58
2018-04-23T08:17:30.914Z,19.58
2018-04-23T08:19:23.860Z,19.48
2018-04-23T08:20:23.867Z,19.40
2018-04-23T08:22:16.786Z,19.31
2018-04-23T08:23:16.814Z,19.41
2018-04-23T08:25:09.748Z,19.32
2018-04-23T08:26:09.760Z,19.36
2018-04-23T08:28:03.169Z,19.41
2018-04-23T08:29:03.196Z,19.48
2018-04-23T08:30:56.134Z,19.65
2018-04-23T08:31:56.144Z,19.69
2018-04-23T08:33:49.064Z,19.91
2018-04-23T08:34:49.089Z,19.91
2018-04-23T08:36:42.522Z,19.76
2018-04-23T08:37:42.532Z,19.78
2018-04-23T08:39:35.468Z,19.84
2018-04-23T08:40:35.478Z,19.98
2018-04-23T08:42:28.407Z,20.17
2018-04-23T08:43:28.431Z,20.08
2018-04-23T08:45:21.383Z,20.20
2018-04-23T08:46:21.385Z,20.14
2018-04-23T08:48:14.308Z,20.16
2018-04-23T08:49:14.341Z,20.17
2018-04-23T08:51:07.285Z,20.13
2018-04-23T08:52:07.290Z,20.11
2018-04-23T08:54:00.702Z,20.24
2018-04-23T08:55:00.730Z,20.28
2018-04-23T08:56:53.667Z,20.41
2018-04-23T08:57:53.685Z,19.88
2018-04-23T08:59:46.611Z,19.91
2018-04-23T09:00:46.622Z,19.76
2018-04-23T09:02:39.538Z,19.54
2018-04-23T09:03:39.566Z,19.40
2018-04-23T09:05:32.504Z,19.48
2018-04-23T09:06:32.511Z,19.48
2018-04-23T09:08:25.433Z,19.71
2018-04-23T09:09:25.507Z,19.71
2018-04-23T09:11:18.394Z,19.48
2018-04-23T09:12:18.401Z,19.51
2018-04-23T09:14:11.322Z,19.46
2018-04-23T09:15:11.348Z,19.31
2018-04-23T09:17:04.786Z,19.31
2018-04-23T09:18:04.792Z,19.19
2018-04-23T09:19:57.724Z,19.14
2018-04-23T09:20:57.731Z,19.02
2018-04-23T09:22:50.646Z,19.25
2018-04-23T09:23:50.675Z,19.21
2018-04-23T09:25:43.610Z,19.43
2018-04-23T09:26:43.618Z,19.46
2018-04-23T09:28:36.533Z,19.78
2018-04-23T09:29:36.561Z,19.77
2018-04-23T09:31:29.496Z,20.05
2018-04-23T09:32:29.504Z,20.21
2018-04-23T09:34:22.422Z,20.16
2018-04-23T09:35:22.449Z,20.36
2018-04-23T09:37:15.384Z,20.58
2018-04-23T09:38:15.394Z,20.74
2018-04-23T09:40:08.352Z,20.98
2018-04-23T09:41:08.345Z,21.13
2018-04-23T09:43:01.259Z,21.06
2018-04-23T09:44:01.286Z,21.14
2018-04-23T09:45:54.232Z,21.21
2018-04-23T09:46:54.255Z,21.25
2018-04-23T09:48:47.157Z,21.21
2018-04-23T09:49:47.186Z,20.95
2018-04-23T09:51:40.134Z,20.73
2018-04-23T09:52:40.145Z,20.72
2018-04-23T09:54:33.065Z,20.85
2018-04-23T09:55:33.093Z,20.89
2018-04-23T09:57:26.048Z,21.16
2018-04-23T09:58:26.054Z,21.16
2018-04-23T10:00:19.017Z,21.25
2018-04-23T10:01:19.007Z,21.35
2018-04-23T10:03:11.934Z,21.14
2018-04-23T10:04:11.959Z,20.97
2018-04-23T10:06:04.938Z,20.59
2018-04-23T10:07:04.914Z,20.55
2018-04-23T10:08:57.836Z,20.55
2018-04-23T10:09:57.867Z,20.59
2018-04-23T10:11:51.303Z,20.54
2018-04-23T10:12:51.317Z,20.43
2018-04-23T10:14:44.229Z,20.54
2018-04-23T10:15:44.257Z,20.35
2018-04-23T10:17:37.197Z,20.72
2018-04-23T10:18:37.208Z,20.89
2018-04-23T10:20:30.174Z,20.97
2018-04-23T10:21:30.155Z,21.06
2018-04-23T10:23:23.074Z,21.28
2018-04-23T10:24:23.107Z,21.25
2018-04-23T10:26:16.039Z,21.44
2018-04-23T10:27:16.049Z,21.47
2018-04-23T10:29:08.978Z,21.52
2018-04-23T10:30:08.998Z,21.65
2018-04-23T10:32:02.432Z,21.82
2018-04-23T10:33:02.443Z,21.96
2018-04-23T10:34:55.401Z,22.28
2018-04-23T10:35:55.398Z,22.35
2018-04-23T10:37:48.830Z,22.55
2018-04-23T10:38:48.842Z,22.64
2018-04-23T10:40:41.803Z,22.72
2018-04-23T10:41:41.793Z,22.79
2018-04-23T10:43:34.732Z,22.68
2018-04-23T10:44:34.746Z,22.61
2018-04-23T10:46:27.744Z,22.43
2018-04-23T10:47:27.755Z,22.45
2018-04-23T10:49:20.791Z,22.47
2018-04-23T10:50:20.816Z,22.30
2018-04-23T10:52:13.857Z,22.12
2018-04-23T10:53:13.868Z,21.83
2018-04-23T10:55:06.897Z,21.38
2018-04-23T10:56:06.928Z,21.22
2018-04-23T10:57:59.865Z,20.91
2018-04-23T10:58:59.875Z,20.73
2018-04-23T11:00:52.831Z,20.28
2018-04-23T11:01:52.879Z,20.14
2018-04-23T11:03:45.859Z,20.21
2018-04-23T11:04:45.891Z,20.17
2018-04-23T11:06:38.939Z,20.41
2018-04-23T11:07:38.943Z,20.50
2018-04-23T11:09:31.970Z,20.72
2018-04-23T11:10:31.997Z,20.84
2018-04-23T11:12:24.939Z,21.16
2018-04-23T11:13:24.946Z,21.22
2018-04-23T11:15:17.892Z,21.44
2018-04-23T11:17:30.916Z,21.38
2018-04-23T11:18:30.925Z,21.40
2018-04-23T11:20:24.361Z,21.47
2018-04-23T11:21:24.391Z,21.42
2018-04-23T11:23:17.438Z,21.75
2018-04-23T11:24:17.450Z,21.83
2018-04-23T11:26:10.493Z,21.77
2018-04-23T11:27:10.506Z,21.65
2018-04-23T11:29:03.532Z,21.77
2018-04-23T11:30:03.564Z,21.80
2018-04-23T11:31:56.609Z,21.86
2018-04-23T11:32:56.619Z,22.02
2018-04-23T11:34:50.061Z,22.00
2018-04-23T11:35:50.089Z,22.14
2018-04-23T11:37:43.131Z,22.18
2018-04-23T11:38:43.193Z,21.84
2018-04-23T11:40:36.167Z,21.77
2018-04-23T11:41:36.196Z,21.83
2018-04-23T11:43:29.242Z,22.02
2018-04-23T11:44:29.254Z,22.18
2018-04-23T11:46:22.305Z,22.33
2018-04-23T11:47:22.308Z,22.43
2018-04-23T11:49:15.334Z,22.17
2018-04-23T11:50:15.367Z,22.09
2018-04-23T11:52:08.412Z,22.27
2018-04-23T11:53:08.470Z,22.25
2018-04-23T11:55:01.447Z,22.28
2018-04-23T11:56:01.477Z,22.42
2018-04-23T11:57:54.524Z,22.57
2018-04-23T11:58:54.551Z,22.60
2018-04-23T12:00:47.562Z,22.72
2018-04-23T12:01:47.592Z,22.83
2018-04-23T12:03:40.638Z,22.82
2018-04-23T12:04:40.647Z,22.85
2018-04-23T12:06:34.105Z,23.01
2018-04-23T12:07:34.113Z,23.00
2018-04-23T12:09:27.146Z,23.16
2018-04-23T12:10:27.175Z,23.20
2018-04-23T12:12:20.116Z,23.07
2018-04-23T12:13:20.131Z,22.82
2018-04-23T12:15:13.149Z,22.73
2018-04-23T12:16:13.189Z,22.49
2018-04-23T12:18:06.228Z,22.49
2018-04-23T12:19:06.235Z,22.49
2018-04-23T12:20:59.331Z,22.47
2018-04-23T12:21:59.292Z,22.51
2018-04-23T12:23:52.334Z,22.55
2018-04-23T12:24:52.345Z,22.31
2018-04-23T12:26:45.396Z,22.27
2018-04-23T12:27:45.402Z,22.25
2018-04-23T12:29:38.428Z,22.20
2018-04-23T12:30:38.461Z,21.94
2018-04-23T12:32:31.917Z,21.58
2018-04-23T12:33:31.927Z,21.31
2018-04-23T12:35:24.950Z,21.21
2018-04-23T12:36:24.980Z,21.16
2018-04-23T12:38:18.029Z,20.99
2018-04-23T12:39:18.044Z,21.03
2018-04-23T12:41:10.963Z,21.07
2018-04-23T12:42:10.990Z,21.09
2018-04-23T12:44:04.036Z,21.24
2018-04-23T12:45:04.047Z,21.24
2018-04-23T12:46:57.092Z,20.97
2018-04-23T12:47:57.114Z,21.03
2018-04-23T12:49:50.128Z,21.16
2018-04-23T12:50:50.158Z,21.21
2018-04-23T12:52:43.105Z,21.17
2018-04-23T12:53:43.112Z,21.27
2018-04-23T12:55:36.140Z,21.56
2018-04-23T12:56:36.169Z,21.58
2018-04-23T12:58:29.119Z,21.58
2018-04-23T12:59:29.122Z,21.54
2018-04-23T13:01:22.052Z,21.47
2018-04-23T13:02:22.080Z,21.42
2018-04-23T13:04:15.124Z,21.40
2018-04-23T13:05:15.132Z,21.40
2018-04-23T13:07:08.200Z,21.42
2018-04-23T13:08:08.190Z,21.49
2018-04-23T13:10:01.255Z,21.61
2018-04-23T13:11:01.245Z,21.65
2018-04-23T13:12:54.192Z,21.38
2018-04-23T13:13:54.199Z,21.42
2018-04-23T13:15:47.228Z,21.24
2018-04-23T13:16:47.256Z,21.24
2018-04-23T13:18:40.713Z,21.12
2018-04-23T13:19:40.726Z,21.22
2018-04-23T13:21:33.752Z,21.21
2018-04-23T13:22:33.836Z,21.37
2018-04-23T13:24:26.827Z,21.58
2018-04-23T13:25:26.831Z,21.59
2018-04-23T13:27:19.883Z,21.64
2018-04-23T13:28:19.890Z,21.67
2018-04-23T13:30:13.328Z,21.61
2018-04-23T13:31:13.357Z,21.58
2018-04-23T13:33:06.405Z,21.53
2018-04-23T13:34:06.413Z,21.53
2018-04-23T13:35:59.444Z,21.67
2018-04-23T13:36:59.469Z,21.58
2018-04-23T13:38:52.924Z,21.62
2018-04-23T13:39:52.938Z,21.64
2018-04-23T13:41:45.965Z,21.79
2018-04-23T13:42:45.996Z,21.91
2018-04-23T13:44:39.037Z,21.96
2018-04-23T13:45:39.046Z,22.02
2018-04-23T13:47:32.075Z,21.98
2018-04-23T13:48:32.103Z,21.88
2018-04-23T13:50:25.149Z,21.75
2018-04-23T13:51:25.158Z,21.80
2018-04-23T13:53:18.207Z,21.50
2018-04-23T13:54:18.216Z,21.42
2018-04-23T13:56:16.166Z,21.29
2018-04-23T13:57:23.363Z,21.25
2018-04-23T13:59:09.135Z,21.25
2018-04-23T14:00:09.141Z,21.24
2018-04-23T14:02:02.077Z,21.27
2018-04-23T14:03:02.097Z,21.31
2018-04-23T14:04:55.142Z,21.12
2018-04-23T14:05:55.153Z,20.97
2018-04-23T14:07:48.175Z,20.69
2018-04-23T14:08:48.204Z,20.79
2018-04-23T14:10:42.693Z,20.77
2018-04-23T14:11:42.694Z,20.70
2018-04-23T14:13:35.621Z,20.54
2018-04-23T14:14:35.652Z,20.51
2018-04-23T14:16:28.695Z,20.58
2018-04-23T14:17:28.706Z,20.57
2018-04-23T14:19:21.650Z,20.74
2018-04-23T14:20:21.659Z,20.72
2018-04-23T14:22:14.584Z,20.74
2018-04-23T14:23:14.612Z,20.84
2018-04-23T14:25:07.557Z,20.95
2018-04-23T14:26:07.566Z,21.13
2018-04-23T14:28:00.493Z,21.21
2018-04-23T14:29:00.520Z,21.25
2018-04-23T14:30:53.468Z,21.25
2018-04-23T14:31:53.476Z,21.24
2018-04-23T14:33:46.503Z,21.19
2018-04-23T14:34:46.532Z,21.21
2018-04-23T14:36:39.991Z,21.24
2018-04-23T14:37:40.020Z,21.16
2018-04-23T14:39:33.044Z,21.22
2018-04-23T14:40:33.053Z,21.13
2018-04-23T14:42:25.979Z,20.98
2018-04-23T14:43:26.012Z,21.12
2018-04-23T14:45:18.960Z,21.10
2018-04-23T14:46:18.961Z,21.10
2018-04-23T14:48:11.888Z,21.21
2018-04-23T14:49:11.914Z,21.25
2018-04-23T14:51:04.871Z,21.29
2018-04-23T14:52:04.871Z,21.38
2018-04-23T14:53:57.898Z,21.47
2018-04-23T14:54:57.926Z,21.40
2018-04-23T14:56:52.405Z,21.31
2018-04-23T14:57:52.416Z,21.35
2018-04-23T14:59:45.340Z,21.27
2018-04-23T15:00:45.367Z,21.21
2018-04-23T15:02:38.313Z,20.99
2018-04-23T15:03:38.321Z,20.88
2018-04-23T15:05:31.371Z,20.89
2018-04-23T15:06:31.380Z,20.84
2018-04-23T15:08:24.338Z,20.69
2018-04-23T15:09:24.332Z,20.85
2018-04-23T15:11:17.277Z,20.58
2018-04-23T15:12:17.286Z,20.51
2018-04-23T15:14:10.314Z,20.48
2018-04-23T15:15:10.346Z,20.38
2018-04-23T15:17:03.289Z,20.41
2018-04-23T15:18:03.294Z,20.43
2018-04-23T15:19:56.735Z,20.51
2018-04-23T15:20:56.765Z,20.62
2018-04-23T15:22:49.809Z,20.58
2018-04-23T15:23:49.818Z,20.62
2018-04-23T15:25:42.846Z,20.32
2018-04-23T15:26:42.874Z,20.39
2018-04-23T15:28:36.377Z,20.48
2018-04-23T15:29:36.344Z,20.43
2018-04-23T15:31:29.795Z,20.16
2018-04-23T15:32:29.806Z,20.38
2018-04-23T15:34:23.249Z,20.18
2018-04-23T15:35:23.273Z,20.11
2018-04-23T15:37:17.243Z,19.98
2018-04-23T15:38:17.248Z,20.02
2018-04-23T15:40:10.176Z,19.94
2018-04-23T15:41:10.261Z,19.92
2018-04-23T15:43:06.218Z,19.86
2018-04-23T15:44:06.226Z,19.94
2018-04-23T15:45:59.256Z,19.73
2018-04-23T15:46:59.283Z,19.71
2018-04-23T15:48:52.228Z,19.59
2018-04-23T15:49:52.237Z,19.62
2018-04-23T15:51:45.183Z,19.55
2018-04-23T15:52:45.226Z,19.61
2018-04-23T15:54:38.122Z,19.63
2018-04-23T15:55:38.146Z,19.66
2018-04-23T15:57:31.192Z,19.65
2018-04-23T15:58:31.203Z,19.51
2018-04-23T16:00:24.640Z,19.37
2018-04-23T16:01:24.666Z,19.48
2018-04-23T16:03:17.619Z,19.40
2018-04-23T16:04:17.623Z,19.51
2018-04-23T16:06:10.650Z,19.39
2018-04-23T16:07:10.679Z,19.36
2018-04-23T16:09:03.623Z,19.32
2018-04-23T16:10:03.636Z,19.50
2018-04-23T16:11:56.557Z,19.55
2018-04-23T16:12:56.583Z,19.71
2018-04-23T16:14:50.046Z,19.71
2018-04-23T16:15:50.055Z,19.69
2018-04-23T16:17:43.509Z,19.73
2018-04-23T16:18:43.517Z,19.69
2018-04-23T16:20:37.981Z,19.61
2018-04-23T16:21:38.010Z,19.54
2018-04-23T16:23:30.956Z,19.50
2018-04-23T16:24:30.971Z,19.50
2018-04-23T16:26:23.885Z,19.29
2018-04-23T16:27:23.915Z,19.33
2018-04-23T16:29:16.861Z,19.28
2018-04-23T16:30:16.867Z,19.44
2018-04-23T16:32:09.793Z,19.44
2018-04-23T16:33:09.820Z,19.29
2018-04-23T16:35:02.791Z,19.44
2018-04-23T16:36:02.790Z,19.31
2018-04-23T16:37:55.831Z,19.51
2018-04-23T16:38:55.837Z,19.44
2018-04-23T16:40:48.786Z,19.51
2018-04-23T16:41:48.792Z,19.56
2018-04-23T16:43:41.835Z,19.58
2018-04-23T16:44:41.845Z,19.47
2018-04-23T16:46:34.877Z,19.48
2018-04-23T16:47:34.909Z,19.56
2018-04-23T16:49:27.951Z,19.55
2018-04-23T16:50:27.957Z,19.71
2018-04-23T16:52:21.396Z,19.71
2018-04-23T16:53:21.423Z,19.66
2018-04-23T16:55:14.367Z,19.62
2018-04-23T16:56:14.372Z,19.48
2018-04-23T16:58:07.303Z,19.22
2018-04-23T16:59:07.328Z,19.19
2018-04-23T17:01:01.814Z,19.06
2018-04-23T17:02:01.821Z,19.00
2018-04-23T17:03:55.277Z,19.11
2018-04-23T17:04:55.282Z,19.04
2018-04-23T17:06:48.198Z,19.14
2018-04-23T17:07:48.232Z,19.16
2018-04-23T17:09:41.698Z,19.11
2018-04-23T17:10:41.709Z,19.06
2018-04-23T17:12:35.144Z,18.98
2018-04-23T17:13:35.169Z,18.98
2018-04-23T17:15:28.114Z,19.11
2018-04-23T17:16:28.122Z,19.02
2018-04-23T17:18:21.053Z,18.92
2018-04-23T17:19:21.079Z,18.81
2018-04-23T17:21:14.535Z,18.95
2018-04-23T17:22:14.545Z,18.69
2018-04-23T17:24:07.459Z,18.67
2018-04-23T17:25:07.488Z,18.67
2018-04-23T17:27:00.471Z,18.50
2018-04-23T17:28:00.451Z,18.44
2018-04-23T17:29:53.396Z,18.50
2018-04-23T17:30:53.403Z,18.48
2018-04-23T17:32:46.330Z,18.39
2018-04-23T17:33:46.357Z,18.35
2018-04-23T17:35:39.305Z,18.21
2018-04-23T17:36:39.317Z,18.14
2018-04-23T17:38:32.238Z,18.07
2018-04-23T17:39:32.262Z,18.05
2018-04-23T17:41:25.212Z,17.99
2018-04-23T17:42:25.219Z,17.95
2018-04-23T17:44:18.147Z,17.95
2018-04-23T17:45:18.174Z,17.96
2018-04-23T17:47:11.122Z,17.77
2018-04-23T17:48:11.128Z,17.79
2018-04-23T17:50:04.091Z,17.72
2018-04-23T17:51:04.085Z,17.75
2018-04-23T17:52:57.010Z,17.74
2018-04-23T17:53:57.034Z,17.77
2018-04-23T17:55:49.982Z,17.68
2018-04-23T17:56:49.993Z,17.74
2018-04-23T17:58:42.923Z,17.63
2018-04-23T17:59:42.941Z,17.52
2018-04-23T18:01:35.890Z,17.62
2018-04-23T18:02:35.895Z,17.46
2018-04-23T18:04:28.824Z,17.44
2018-04-23T18:05:28.853Z,17.40
2018-04-23T18:07:21.796Z,17.43
2018-04-23T18:08:21.802Z,17.22
2018-04-23T18:10:14.735Z,17.21
2018-04-23T18:11:14.763Z,17.23
2018-04-23T18:13:07.711Z,17.11
2018-04-23T18:14:07.714Z,17.18
2018-04-23T18:16:00.657Z,17.14
2018-04-23T18:17:00.664Z,17.14
2018-04-23T18:18:53.592Z,16.98
2018-04-23T18:19:53.618Z,16.97
2018-04-23T18:21:46.568Z,17.11
2018-04-23T18:22:46.569Z,16.97
2018-04-23T18:24:39.502Z,16.88
2018-04-23T18:25:39.525Z,17.00
2018-04-23T18:27:32.472Z,16.85
2018-04-23T18:28:32.478Z,16.85
2018-04-23T18:30:25.408Z,16.89
2018-04-23T18:31:25.456Z,16.89
2018-04-23T18:33:18.381Z,16.82
2018-04-23T18:34:18.387Z,16.76